sensor_id;sensor_type;location;lat;lon;timestamp;P1;durP1;ratioP1;P2;durP2;ratioP2
9854;SDS011;4966;48.112;9.282;2023-05-01T00:00:22;4.43;;;2.22;;
9854;SDS011;4966;48.112;9.282;2023-05-01T00:02:47;3.88;;;2.42;;
9854;SDS011;4966;48.112;9.282;2023-05-01T00:05:12;3.70;;;2.47;;
9854;SDS011;4966;48.112;9.282;2023-05-01T00:07:38;3.40;;;2.00;;
9854;SDS011;4966;48.112;9.282;2023-05-01T00:10:03;4.22;;;2.55;;
9854;SDS011;4966;48.112;9.282;2023-05-01T00:12:29;3.88;;;2.20;;
9854;SDS011;4966;48.112;9.282;2023-05-01T00:14:54;4.93;;;2.50;;
9854;SDS011;4966;48.112;9.282;2023-05-01T00:17:20;4.25;;;2.35;;
9854;SDS011;4966;48.112;9.282;2023-05-01T00:19:50;4.32;;;2.38;;
9854;SDS011;4966;48.112;9.282;2023-05-01T00:22:16;4.05;;;2.30;;
9854;SDS011;4966;48.112;9.282;2023-05-01T00:24:41;3.88;;;2.40;;
9854;SDS011;4966;48.112;9.282;2023-05-01T00:27:07;4.47;;;2.50;;
9854;SDS011;4966;48.112;9.282;2023-05-01T00:29:32;4.85;;;2.38;;
9854;SDS011;4966;48.112;9.282;2023-05-01T00:31:57;3.88;;;2.35;;
9854;SDS011;4966;48.112;9.282;2023-05-01T00:34:23;3.67;;;2.30;;
9854;SDS011;4966;48.112;9.282;2023-05-01T00:36:49;6.25;;;2.53;;
9854;SDS011;4966;48.112;9.282;2023-05-01T00:39:14;5.05;;;2.35;;
9854;SDS011;4966;48.112;9.282;2023-05-01T00:41:40;4.30;;;2.25;;
9854;SDS011;4966;48.112;9.282;2023-05-01T00:44:05;5.10;;;2.33;;
9854;SDS011;4966;48.112;9.282;2023-05-01T00:46:31;4.93;;;2.60;;
9854;SDS011;4966;48.112;9.282;2023-05-01T00:48:58;9.93;;;2.50;;
9854;SDS011;4966;48.112;9.282;2023-05-01T00:51:25;4.43;;;2.42;;
9854;SDS011;4966;48.112;9.282;2023-05-01T00:53:53;3.72;;;2.33;;
9854;SDS011;4966;48.112;9.282;2023-05-01T00:56:19;4.15;;;2.53;;
9854;SDS011;4966;48.112;9.282;2023-05-01T00:58:46;5.38;;;2.58;;
9854;SDS011;4966;48.112;9.282;2023-05-01T01:01:18;3.80;;;2.33;;
9854;SDS011;4966;48.112;9.282;2023-05-01T01:03:45;3.85;;;2.30;;
9854;SDS011;4966;48.112;9.282;2023-05-01T01:08:48;3.60;;;2.53;;
9854;SDS011;4966;48.112;9.282;2023-05-01T01:16:42;4.72;;;2.90;;
9854;SDS011;4966;48.112;9.282;2023-05-01T01:22:01;5.18;;;2.30;;
9854;SDS011;4966;48.112;9.282;2023-05-01T01:24:55;4.32;;;2.20;;
9854;SDS011;4966;48.112;9.282;2023-05-01T01:30:40;4.93;;;2.70;;
9854;SDS011;4966;48.112;9.282;2023-05-01T01:33:44;6.53;;;2.92;;
9854;SDS011;4966;48.112;9.282;2023-05-01T01:36:21;5.50;;;2.60;;
9854;SDS011;4966;48.112;9.282;2023-05-01T01:39:01;4.63;;;2.70;;
9854;SDS011;4966;48.112;9.282;2023-05-01T01:41:33;5.43;;;2.58;;
9854;SDS011;4966;48.112;9.282;2023-05-01T01:44:08;4.05;;;2.65;;
9854;SDS011;4966;48.112;9.282;2023-05-01T01:46:38;6.65;;;2.20;;
9854;SDS011;4966;48.112;9.282;2023-05-01T01:49:07;4.53;;;2.30;;
9854;SDS011;4966;48.112;9.282;2023-05-01T01:51:37;3.58;;;2.25;;
9854;SDS011;4966;48.112;9.282;2023-05-01T01:54:05;4.32;;;2.83;;
9854;SDS011;4966;48.112;9.282;2023-05-01T01:56:33;4.28;;;2.63;;
9854;SDS011;4966;48.112;9.282;2023-05-01T01:59:01;6.63;;;2.83;;
9854;SDS011;4966;48.112;9.282;2023-05-01T02:01:29;7.25;;;3.05;;
9854;SDS011;4966;48.112;9.282;2023-05-01T02:03:54;4.05;;;2.50;;
9854;SDS011;4966;48.112;9.282;2023-05-01T02:06:21;3.55;;;2.33;;
9854;SDS011;4966;48.112;9.282;2023-05-01T02:08:48;6.03;;;2.78;;
9854;SDS011;4966;48.112;9.282;2023-05-01T02:11:14;3.88;;;2.80;;
9854;SDS011;4966;48.112;9.282;2023-05-01T02:13:43;8.90;;;2.90;;
9854;SDS011;4966;48.112;9.282;2023-05-01T02:16:09;4.40;;;2.60;;
9854;SDS011;4966;48.112;9.282;2023-05-01T02:18:37;5.95;;;2.53;;
9854;SDS011;4966;48.112;9.282;2023-05-01T02:21:04;4.60;;;2.53;;
9854;SDS011;4966;48.112;9.282;2023-05-01T02:23:30;4.43;;;2.33;;
9854;SDS011;4966;48.112;9.282;2023-05-01T02:25:57;4.68;;;2.70;;
9854;SDS011;4966;48.112;9.282;2023-05-01T02:28:27;5.55;;;2.60;;
9854;SDS011;4966;48.112;9.282;2023-05-01T02:30:54;3.85;;;2.47;;
9854;SDS011;4966;48.112;9.282;2023-05-01T02:33:19;6.35;;;2.60;;
9854;SDS011;4966;48.112;9.282;2023-05-01T02:35:45;4.60;;;2.90;;
9854;SDS011;4966;48.112;9.282;2023-05-01T02:38:11;5.60;;;2.50;;
9854;SDS011;4966;48.112;9.282;2023-05-01T02:40:39;8.18;;;2.75;;
9854;SDS011;4966;48.112;9.282;2023-05-01T02:45:36;4.30;;;2.47;;
9854;SDS011;4966;48.112;9.282;2023-05-01T02:48:04;3.72;;;2.35;;
9854;SDS011;4966;48.112;9.282;2023-05-01T02:50:30;5.47;;;2.63;;
9854;SDS011;4966;48.112;9.282;2023-05-01T02:52:57;5.53;;;2.60;;
9854;SDS011;4966;48.112;9.282;2023-05-01T02:55:23;5.60;;;2.30;;
9854;SDS011;4966;48.112;9.282;2023-05-01T02:57:50;5.65;;;2.85;;
9854;SDS011;4966;48.112;9.282;2023-05-01T03:00:15;3.50;;;2.50;;
9854;SDS011;4966;48.112;9.282;2023-05-01T03:02:41;4.95;;;2.80;;
9854;SDS011;4966;48.112;9.282;2023-05-01T03:05:07;4.82;;;2.75;;
9854;SDS011;4966;48.112;9.282;2023-05-01T03:07:33;6.70;;;2.83;;
9854;SDS011;4966;48.112;9.282;2023-05-01T03:10:02;4.32;;;2.60;;
9854;SDS011;4966;48.112;9.282;2023-05-01T03:12:29;4.65;;;2.45;;
9854;SDS011;4966;48.112;9.282;2023-05-01T03:14:55;5.00;;;2.78;;
9854;SDS011;4966;48.112;9.282;2023-05-01T03:17:21;5.13;;;3.10;;
9854;SDS011;4966;48.112;9.282;2023-05-01T03:19:46;5.60;;;3.08;;
9854;SDS011;4966;48.112;9.282;2023-05-01T03:22:12;6.82;;;3.25;;
9854;SDS011;4966;48.112;9.282;2023-05-01T03:24:38;4.35;;;2.85;;
9854;SDS011;4966;48.112;9.282;2023-05-01T03:27:03;4.75;;;2.78;;
9854;SDS011;4966;48.112;9.282;2023-05-01T03:29:29;7.20;;;2.90;;
9854;SDS011;4966;48.112;9.282;2023-05-01T03:31:55;5.72;;;3.03;;
9854;SDS011;4966;48.112;9.282;2023-05-01T03:34:21;5.70;;;3.50;;
9854;SDS011;4966;48.112;9.282;2023-05-01T03:36:47;8.25;;;2.95;;
9854;SDS011;4966;48.112;9.282;2023-05-01T03:39:12;4.40;;;2.92;;
9854;SDS011;4966;48.112;9.282;2023-05-01T03:41:38;6.35;;;3.45;;
9854;SDS011;4966;48.112;9.282;2023-05-01T03:44:03;9.93;;;3.00;;
9854;SDS011;4966;48.112;9.282;2023-05-01T03:46:29;5.63;;;3.38;;
9854;SDS011;4966;48.112;9.282;2023-05-01T03:48:54;5.25;;;3.35;;
9854;SDS011;4966;48.112;9.282;2023-05-01T03:51:19;6.03;;;3.50;;
9854;SDS011;4966;48.112;9.282;2023-05-01T03:53:45;5.70;;;3.55;;
9854;SDS011;4966;48.112;9.282;2023-05-01T03:56:10;5.63;;;2.75;;
9854;SDS011;4966;48.112;9.282;2023-05-01T03:58:36;12.10;;;3.10;;
9854;SDS011;4966;48.112;9.282;2023-05-01T04:01:01;6.25;;;2.83;;
9854;SDS011;4966;48.112;9.282;2023-05-01T04:03:27;4.32;;;2.80;;
9854;SDS011;4966;48.112;9.282;2023-05-01T04:05:52;6.05;;;2.65;;
9854;SDS011;4966;48.112;9.282;2023-05-01T04:08:18;7.15;;;3.10;;
9854;SDS011;4966;48.112;9.282;2023-05-01T04:10:43;6.43;;;3.17;;
9854;SDS011;4966;48.112;9.282;2023-05-01T04:13:09;6.75;;;3.03;;
9854;SDS011;4966;48.112;9.282;2023-05-01T04:15:36;5.35;;;2.83;;
9854;SDS011;4966;48.112;9.282;2023-05-01T04:18:01;5.75;;;3.17;;
9854;SDS011;4966;48.112;9.282;2023-05-01T04:20:26;6.35;;;3.03;;
9854;SDS011;4966;48.112;9.282;2023-05-01T04:22:52;4.53;;;2.88;;
9854;SDS011;4966;48.112;9.282;2023-05-01T04:25:17;5.60;;;3.15;;
9854;SDS011;4966;48.112;9.282;2023-05-01T04:27:42;8.68;;;2.95;;
9854;SDS011;4966;48.112;9.282;2023-05-01T04:30:08;8.73;;;2.75;;
9854;SDS011;4966;48.112;9.282;2023-05-01T04:32:34;4.95;;;2.60;;
9854;SDS011;4966;48.112;9.282;2023-05-01T04:35:00;4.78;;;2.92;;
9854;SDS011;4966;48.112;9.282;2023-05-01T04:37:25;4.50;;;2.78;;
9854;SDS011;4966;48.112;9.282;2023-05-01T04:39:50;7.22;;;3.08;;
9854;SDS011;4966;48.112;9.282;2023-05-01T04:42:16;5.60;;;2.83;;
9854;SDS011;4966;48.112;9.282;2023-05-01T04:44:41;5.40;;;2.65;;
9854;SDS011;4966;48.112;9.282;2023-05-01T04:47:07;5.20;;;2.80;;
9854;SDS011;4966;48.112;9.282;2023-05-01T04:49:32;8.82;;;3.45;;
9854;SDS011;4966;48.112;9.282;2023-05-01T04:51:58;6.22;;;2.85;;
9854;SDS011;4966;48.112;9.282;2023-05-01T04:54:23;6.70;;;3.42;;
9854;SDS011;4966;48.112;9.282;2023-05-01T04:56:49;3.90;;;2.70;;
9854;SDS011;4966;48.112;9.282;2023-05-01T04:59:15;5.68;;;3.05;;
9854;SDS011;4966;48.112;9.282;2023-05-01T05:01:41;4.38;;;2.75;;
9854;SDS011;4966;48.112;9.282;2023-05-01T05:04:06;4.57;;;2.30;;
9854;SDS011;4966;48.112;9.282;2023-05-01T05:06:31;4.40;;;2.60;;
9854;SDS011;4966;48.112;9.282;2023-05-01T05:08:57;6.40;;;3.13;;
9854;SDS011;4966;48.112;9.282;2023-05-01T05:11:22;8.88;;;2.78;;
9854;SDS011;4966;48.112;9.282;2023-05-01T05:13:48;4.03;;;2.78;;
9854;SDS011;4966;48.112;9.282;2023-05-01T05:16:13;5.55;;;2.95;;
9854;SDS011;4966;48.112;9.282;2023-05-01T05:18:39;4.50;;;2.78;;
9854;SDS011;4966;48.112;9.282;2023-05-01T05:21:05;3.85;;;2.50;;
9854;SDS011;4966;48.112;9.282;2023-05-01T05:23:31;4.55;;;3.03;;
9854;SDS011;4966;48.112;9.282;2023-05-01T05:25:56;6.20;;;3.08;;
9854;SDS011;4966;48.112;9.282;2023-05-01T05:28:25;5.03;;;3.17;;
9854;SDS011;4966;48.112;9.282;2023-05-01T05:30:51;6.03;;;2.75;;
9854;SDS011;4966;48.112;9.282;2023-05-01T05:33:16;4.72;;;3.00;;
9854;SDS011;4966;48.112;9.282;2023-05-01T05:35:42;4.95;;;2.83;;
9854;SDS011;4966;48.112;9.282;2023-05-01T05:38:08;9.35;;;3.95;;
9854;SDS011;4966;48.112;9.282;2023-05-01T05:40:33;5.28;;;3.05;;
9854;SDS011;4966;48.112;9.282;2023-05-01T05:42:58;7.68;;;3.17;;
9854;SDS011;4966;48.112;9.282;2023-05-01T05:45:24;5.53;;;3.50;;
9854;SDS011;4966;48.112;9.282;2023-05-01T05:47:49;4.80;;;3.13;;
9854;SDS011;4966;48.112;9.282;2023-05-01T05:50:15;5.03;;;3.10;;
9854;SDS011;4966;48.112;9.282;2023-05-01T05:52:40;6.22;;;3.20;;
9854;SDS011;4966;48.112;9.282;2023-05-01T05:55:06;6.05;;;3.35;;
9854;SDS011;4966;48.112;9.282;2023-05-01T05:57:31;5.53;;;3.33;;
9854;SDS011;4966;48.112;9.282;2023-05-01T05:59:59;5.65;;;3.35;;
9854;SDS011;4966;48.112;9.282;2023-05-01T06:02:25;6.97;;;3.15;;
9854;SDS011;4966;48.112;9.282;2023-05-01T06:04:50;5.22;;;3.15;;
9854;SDS011;4966;48.112;9.282;2023-05-01T06:07:16;5.78;;;3.65;;
9854;SDS011;4966;48.112;9.282;2023-05-01T06:09:41;4.63;;;3.22;;
9854;SDS011;4966;48.112;9.282;2023-05-01T06:12:07;5.15;;;3.38;;
9854;SDS011;4966;48.112;9.282;2023-05-01T06:14:33;6.25;;;3.13;;
9854;SDS011;4966;48.112;9.282;2023-05-01T06:16:58;7.00;;;3.53;;
9854;SDS011;4966;48.112;9.282;2023-05-01T06:19:24;11.73;;;3.22;;
9854;SDS011;4966;48.112;9.282;2023-05-01T06:21:49;7.55;;;3.50;;
9854;SDS011;4966;48.112;9.282;2023-05-01T06:24:15;5.00;;;3.22;;
9854;SDS011;4966;48.112;9.282;2023-05-01T06:26:40;5.18;;;3.42;;
9854;SDS011;4966;48.112;9.282;2023-05-01T06:29:06;7.80;;;3.45;;
9854;SDS011;4966;48.112;9.282;2023-05-01T06:31:31;6.95;;;3.10;;
9854;SDS011;4966;48.112;9.282;2023-05-01T06:33:56;6.50;;;3.42;;
9854;SDS011;4966;48.112;9.282;2023-05-01T06:36:22;5.07;;;3.40;;
9854;SDS011;4966;48.112;9.282;2023-05-01T06:38:47;7.38;;;3.63;;
9854;SDS011;4966;48.112;9.282;2023-05-01T06:41:14;5.65;;;3.13;;
9854;SDS011;4966;48.112;9.282;2023-05-01T06:43:40;5.60;;;3.38;;
9854;SDS011;4966;48.112;9.282;2023-05-01T06:46:05;6.55;;;3.33;;
9854;SDS011;4966;48.112;9.282;2023-05-01T06:48:30;6.43;;;3.47;;
9854;SDS011;4966;48.112;9.282;2023-05-01T06:50:56;6.93;;;3.45;;
9854;SDS011;4966;48.112;9.282;2023-05-01T06:53:21;6.15;;;3.40;;
9854;SDS011;4966;48.112;9.282;2023-05-01T06:55:47;6.25;;;3.35;;
9854;SDS011;4966;48.112;9.282;2023-05-01T06:58:12;5.72;;;3.55;;
9854;SDS011;4966;48.112;9.282;2023-05-01T07:00:37;4.72;;;3.22;;
9854;SDS011;4966;48.112;9.282;2023-05-01T07:03:03;5.35;;;3.05;;
9854;SDS011;4966;48.112;9.282;2023-05-01T07:05:29;5.45;;;3.08;;
9854;SDS011;4966;48.112;9.282;2023-05-01T07:07:54;4.82;;;3.10;;
9854;SDS011;4966;48.112;9.282;2023-05-01T07:10:20;5.22;;;3.17;;
9854;SDS011;4966;48.112;9.282;2023-05-01T07:12:45;4.80;;;3.40;;
9854;SDS011;4966;48.112;9.282;2023-05-01T07:15:11;6.03;;;3.60;;
9854;SDS011;4966;48.112;9.282;2023-05-01T07:17:38;6.25;;;3.50;;
9854;SDS011;4966;48.112;9.282;2023-05-01T07:20:03;5.50;;;3.45;;
9854;SDS011;4966;48.112;9.282;2023-05-01T07:22:29;5.47;;;3.40;;
9854;SDS011;4966;48.112;9.282;2023-05-01T07:24:55;6.93;;;4.15;;
9854;SDS011;4966;48.112;9.282;2023-05-01T07:27:20;5.70;;;3.42;;
9854;SDS011;4966;48.112;9.282;2023-05-01T07:29:46;5.90;;;3.20;;
9854;SDS011;4966;48.112;9.282;2023-05-01T07:32:11;6.03;;;3.50;;
9854;SDS011;4966;48.112;9.282;2023-05-01T07:34:36;7.10;;;3.33;;
9854;SDS011;4966;48.112;9.282;2023-05-01T07:37:02;8.18;;;3.63;;
9854;SDS011;4966;48.112;9.282;2023-05-01T07:39:29;6.65;;;3.40;;
9854;SDS011;4966;48.112;9.282;2023-05-01T07:41:56;4.53;;;3.00;;
9854;SDS011;4966;48.112;9.282;2023-05-01T07:44:21;5.00;;;3.05;;
9854;SDS011;4966;48.112;9.282;2023-05-01T07:46:47;4.45;;;3.05;;
9854;SDS011;4966;48.112;9.282;2023-05-01T07:49:13;4.30;;;2.65;;
9854;SDS011;4966;48.112;9.282;2023-05-01T07:51:38;4.43;;;2.75;;
9854;SDS011;4966;48.112;9.282;2023-05-01T07:54:03;4.82;;;3.10;;
9854;SDS011;4966;48.112;9.282;2023-05-01T07:56:29;4.32;;;2.78;;
9854;SDS011;4966;48.112;9.282;2023-05-01T07:58:55;4.32;;;2.53;;
9854;SDS011;4966;48.112;9.282;2023-05-01T08:01:21;8.63;;;3.00;;
9854;SDS011;4966;48.112;9.282;2023-05-01T08:03:47;5.72;;;2.80;;
9854;SDS011;4966;48.112;9.282;2023-05-01T08:06:12;9.48;;;4.10;;
9854;SDS011;4966;48.112;9.282;2023-05-01T08:08:38;5.65;;;2.80;;
9854;SDS011;4966;48.112;9.282;2023-05-01T08:11:04;5.05;;;3.20;;
9854;SDS011;4966;48.112;9.282;2023-05-01T08:13:29;4.03;;;2.42;;
9854;SDS011;4966;48.112;9.282;2023-05-01T08:15:55;4.72;;;3.05;;
9854;SDS011;4966;48.112;9.282;2023-05-01T08:18:23;5.82;;;3.10;;
9854;SDS011;4966;48.112;9.282;2023-05-01T08:20:48;4.78;;;2.95;;
9854;SDS011;4966;48.112;9.282;2023-05-01T08:23:14;4.68;;;2.92;;
9854;SDS011;4966;48.112;9.282;2023-05-01T08:28:10;6.72;;;3.45;;
9854;SDS011;4966;48.112;9.282;2023-05-01T08:30:36;5.75;;;3.35;;
9854;SDS011;4966;48.112;9.282;2023-05-01T08:33:02;6.05;;;3.35;;
9854;SDS011;4966;48.112;9.282;2023-05-01T08:35:27;9.30;;;3.63;;
9854;SDS011;4966;48.112;9.282;2023-05-01T08:37:52;5.00;;;3.13;;
9854;SDS011;4966;48.112;9.282;2023-05-01T08:40:18;7.00;;;3.22;;
9854;SDS011;4966;48.112;9.282;2023-05-01T08:42:43;5.70;;;3.10;;
9854;SDS011;4966;48.112;9.282;2023-05-01T08:45:09;7.38;;;3.38;;
9854;SDS011;4966;48.112;9.282;2023-05-01T08:47:36;5.45;;;3.10;;
9854;SDS011;4966;48.112;9.282;2023-05-01T08:50:03;4.40;;;2.95;;
9854;SDS011;4966;48.112;9.282;2023-05-01T08:52:33;4.70;;;3.20;;
9854;SDS011;4966;48.112;9.282;2023-05-01T08:54:59;4.45;;;3.00;;
9854;SDS011;4966;48.112;9.282;2023-05-01T08:57:26;4.53;;;3.40;;
9854;SDS011;4966;48.112;9.282;2023-05-01T08:59:54;4.70;;;2.85;;
9854;SDS011;4966;48.112;9.282;2023-05-01T09:02:22;5.03;;;2.95;;
9854;SDS011;4966;48.112;9.282;2023-05-01T09:04:48;5.57;;;3.00;;
9854;SDS011;4966;48.112;9.282;2023-05-01T09:07:15;6.38;;;3.45;;
9854;SDS011;4966;48.112;9.282;2023-05-01T09:09:41;4.85;;;3.10;;
9854;SDS011;4966;48.112;9.282;2023-05-01T09:12:11;5.55;;;3.10;;
9854;SDS011;4966;48.112;9.282;2023-05-01T09:14:43;5.07;;;3.05;;
9854;SDS011;4966;48.112;9.282;2023-05-01T09:17:09;3.92;;;2.95;;
9854;SDS011;4966;48.112;9.282;2023-05-01T09:19:36;5.65;;;2.92;;
9854;SDS011;4966;48.112;9.282;2023-05-01T09:22:02;4.82;;;3.08;;
9854;SDS011;4966;48.112;9.282;2023-05-01T09:24:27;4.95;;;3.15;;
9854;SDS011;4966;48.112;9.282;2023-05-01T09:26:52;4.07;;;2.78;;
9854;SDS011;4966;48.112;9.282;2023-05-01T09:32:18;5.35;;;2.80;;
9854;SDS011;4966;48.112;9.282;2023-05-01T09:34:46;4.85;;;3.00;;
9854;SDS011;4966;48.112;9.282;2023-05-01T09:37:23;4.35;;;2.95;;
9854;SDS011;4966;48.112;9.282;2023-05-01T09:40:02;4.20;;;3.05;;
9854;SDS011;4966;48.112;9.282;2023-05-01T09:42:29;6.20;;;3.25;;
9854;SDS011;4966;48.112;9.282;2023-05-01T09:44:57;4.72;;;2.70;;
9854;SDS011;4966;48.112;9.282;2023-05-01T09:47:24;6.20;;;3.38;;
9854;SDS011;4966;48.112;9.282;2023-05-01T09:49:52;6.38;;;3.50;;
9854;SDS011;4966;48.112;9.282;2023-05-01T09:52:17;5.72;;;3.80;;
9854;SDS011;4966;48.112;9.282;2023-05-01T09:54:43;7.75;;;3.78;;
9854;SDS011;4966;48.112;9.282;2023-05-01T09:57:08;9.30;;;5.03;;
9854;SDS011;4966;48.112;9.282;2023-05-01T09:59:34;6.50;;;4.30;;
9854;SDS011;4966;48.112;9.282;2023-05-01T10:01:59;6.30;;;4.03;;
9854;SDS011;4966;48.112;9.282;2023-05-01T10:04:29;7.78;;;5.00;;
9854;SDS011;4966;48.112;9.282;2023-05-01T10:07:03;7.72;;;4.93;;
9854;SDS011;4966;48.112;9.282;2023-05-01T10:09:37;8.77;;;5.00;;
9854;SDS011;4966;48.112;9.282;2023-05-01T10:12:02;10.35;;;5.60;;
9854;SDS011;4966;48.112;9.282;2023-05-01T10:14:28;11.38;;;5.90;;
9854;SDS011;4966;48.112;9.282;2023-05-01T10:16:54;9.88;;;6.03;;
9854;SDS011;4966;48.112;9.282;2023-05-01T10:19:22;9.07;;;6.03;;
9854;SDS011;4966;48.112;9.282;2023-05-01T10:21:47;10.65;;;5.75;;
9854;SDS011;4966;48.112;9.282;2023-05-01T10:24:13;10.35;;;7.30;;
9854;SDS011;4966;48.112;9.282;2023-05-01T10:26:40;11.07;;;8.05;;
9854;SDS011;4966;48.112;9.282;2023-05-01T10:29:07;8.60;;;5.47;;
9854;SDS011;4966;48.112;9.282;2023-05-01T10:31:33;11.10;;;7.50;;
9854;SDS011;4966;48.112;9.282;2023-05-01T10:34:00;11.63;;;5.93;;
9854;SDS011;4966;48.112;9.282;2023-05-01T10:36:29;7.38;;;5.07;;
9854;SDS011;4966;48.112;9.282;2023-05-01T10:38:56;10.35;;;5.22;;
9854;SDS011;4966;48.112;9.282;2023-05-01T10:41:58;12.57;;;5.20;;
9854;SDS011;4966;48.112;9.282;2023-05-01T10:44:22;9.30;;;6.20;;
9854;SDS011;4966;48.112;9.282;2023-05-01T10:46:48;5.65;;;3.83;;
9854;SDS011;4966;48.112;9.282;2023-05-01T10:49:14;7.40;;;4.55;;
9854;SDS011;4966;48.112;9.282;2023-05-01T10:51:58;8.27;;;5.65;;
9854;SDS011;4966;48.112;9.282;2023-05-01T10:54:29;9.68;;;6.45;;
9854;SDS011;4966;48.112;9.282;2023-05-01T10:56:57;8.07;;;5.10;;
9854;SDS011;4966;48.112;9.282;2023-05-01T10:59:26;7.05;;;4.40;;
9854;SDS011;4966;48.112;9.282;2023-05-01T11:02:29;6.38;;;4.72;;
9854;SDS011;4966;48.112;9.282;2023-05-01T11:04:55;6.13;;;4.07;;
9854;SDS011;4966;48.112;9.282;2023-05-01T11:07:21;11.40;;;9.07;;
9854;SDS011;4966;48.112;9.282;2023-05-01T11:12:13;8.05;;;5.78;;
9854;SDS011;4966;48.112;9.282;2023-05-01T11:20:08;6.82;;;4.40;;
9854;SDS011;4966;48.112;9.282;2023-05-01T11:22:50;8.05;;;5.43;;
9854;SDS011;4966;48.112;9.282;2023-05-01T11:25:27;9.75;;;6.75;;
9854;SDS011;4966;48.112;9.282;2023-05-01T11:28:00;6.30;;;3.70;;
9854;SDS011;4966;48.112;9.282;2023-05-01T11:30:36;5.82;;;3.10;;
9854;SDS011;4966;48.112;9.282;2023-05-01T11:33:02;5.10;;;3.05;;
9854;SDS011;4966;48.112;9.282;2023-05-01T11:35:28;5.30;;;2.83;;
9854;SDS011;4966;48.112;9.282;2023-05-01T11:37:54;3.75;;;2.10;;
9854;SDS011;4966;48.112;9.282;2023-05-01T11:40:21;4.50;;;2.50;;
9854;SDS011;4966;48.112;9.282;2023-05-01T11:42:50;4.25;;;2.15;;
9854;SDS011;4966;48.112;9.282;2023-05-01T11:45:24;5.20;;;2.13;;
9854;SDS011;4966;48.112;9.282;2023-05-01T11:47:50;5.82;;;2.50;;
9854;SDS011;4966;48.112;9.282;2023-05-01T11:50:15;3.63;;;2.13;;
9854;SDS011;4966;48.112;9.282;2023-05-01T11:52:42;3.65;;;2.00;;
9854;SDS011;4966;48.112;9.282;2023-05-01T11:55:08;4.55;;;2.80;;
9854;SDS011;4966;48.112;9.282;2023-05-01T12:00:30;4.88;;;2.72;;
9854;SDS011;4966;48.112;9.282;2023-05-01T12:05:30;6.35;;;3.30;;
9854;SDS011;4966;48.112;9.282;2023-05-01T12:10:35;4.03;;;2.50;;
9854;SDS011;4966;48.112;9.282;2023-05-01T12:13:02;4.18;;;2.10;;
9854;SDS011;4966;48.112;9.282;2023-05-01T12:15:30;4.00;;;2.65;;
9854;SDS011;4966;48.112;9.282;2023-05-01T12:20:33;3.60;;;1.85;;
9854;SDS011;4966;48.112;9.282;2023-05-01T12:23:09;3.35;;;2.30;;
9854;SDS011;4966;48.112;9.282;2023-05-01T12:25:37;3.17;;;2.15;;
9854;SDS011;4966;48.112;9.282;2023-05-01T12:30:44;6.50;;;2.67;;
9854;SDS011;4966;48.112;9.282;2023-05-01T12:35:36;3.80;;;2.33;;
9854;SDS011;4966;48.112;9.282;2023-05-01T12:38:13;4.22;;;2.75;;
9854;SDS011;4966;48.112;9.282;2023-05-01T12:40:39;3.17;;;2.30;;
9854;SDS011;4966;48.112;9.282;2023-05-01T12:43:14;4.47;;;2.80;;
9854;SDS011;4966;48.112;9.282;2023-05-01T12:45:40;4.68;;;2.60;;
9854;SDS011;4966;48.112;9.282;2023-05-01T12:48:12;3.67;;;2.30;;
9854;SDS011;4966;48.112;9.282;2023-05-01T12:50:38;3.88;;;2.53;;
9854;SDS011;4966;48.112;9.282;2023-05-01T12:53:05;5.03;;;2.72;;
9854;SDS011;4966;48.112;9.282;2023-05-01T12:55:41;5.45;;;3.40;;
9854;SDS011;4966;48.112;9.282;2023-05-01T12:58:07;3.85;;;2.40;;
9854;SDS011;4966;48.112;9.282;2023-05-01T13:00:49;3.22;;;1.67;;
9854;SDS011;4966;48.112;9.282;2023-05-01T13:03:22;3.65;;;1.90;;
9854;SDS011;4966;48.112;9.282;2023-05-01T13:05:53;5.13;;;1.98;;
9854;SDS011;4966;48.112;9.282;2023-05-01T13:08:29;4.90;;;1.60;;
9854;SDS011;4966;48.112;9.282;2023-05-01T13:10:57;3.45;;;2.05;;
9854;SDS011;4966;48.112;9.282;2023-05-01T13:13:29;5.68;;;2.00;;
9854;SDS011;4966;48.112;9.282;2023-05-01T13:16:03;3.45;;;1.92;;
9854;SDS011;4966;48.112;9.282;2023-05-01T13:18:30;4.30;;;1.85;;
9854;SDS011;4966;48.112;9.282;2023-05-01T13:21:05;3.33;;;1.90;;
9854;SDS011;4966;48.112;9.282;2023-05-01T13:23:32;2.85;;;1.42;;
9854;SDS011;4966;48.112;9.282;2023-05-01T13:25:58;2.83;;;1.90;;
9854;SDS011;4966;48.112;9.282;2023-05-01T13:28:23;2.92;;;1.70;;
9854;SDS011;4966;48.112;9.282;2023-05-01T13:30:49;4.15;;;1.92;;
9854;SDS011;4966;48.112;9.282;2023-05-01T13:33:14;3.25;;;1.52;;
9854;SDS011;4966;48.112;9.282;2023-05-01T13:35:40;3.38;;;2.00;;
9854;SDS011;4966;48.112;9.282;2023-05-01T13:38:07;2.90;;;1.63;;
9854;SDS011;4966;48.112;9.282;2023-05-01T13:40:35;2.58;;;1.48;;
9854;SDS011;4966;48.112;9.282;2023-05-01T13:43:01;2.72;;;1.75;;
9854;SDS011;4966;48.112;9.282;2023-05-01T13:45:27;3.35;;;1.50;;
9854;SDS011;4966;48.112;9.282;2023-05-01T13:47:52;2.78;;;1.50;;
9854;SDS011;4966;48.112;9.282;2023-05-01T13:50:19;3.30;;;1.63;;
9854;SDS011;4966;48.112;9.282;2023-05-01T13:52:45;5.82;;;2.95;;
9854;SDS011;4966;48.112;9.282;2023-05-01T13:55:12;3.65;;;1.80;;
9854;SDS011;4966;48.112;9.282;2023-05-01T13:57:38;2.70;;;1.52;;
9854;SDS011;4966;48.112;9.282;2023-05-01T14:00:07;4.07;;;1.85;;
9854;SDS011;4966;48.112;9.282;2023-05-01T14:02:36;2.83;;;1.65;;
9854;SDS011;4966;48.112;9.282;2023-05-01T14:05:07;2.65;;;1.50;;
9854;SDS011;4966;48.112;9.282;2023-05-01T14:07:34;1.58;;;1.15;;
9854;SDS011;4966;48.112;9.282;2023-05-01T14:10:08;2.85;;;1.50;;
9854;SDS011;4966;48.112;9.282;2023-05-01T14:12:33;3.00;;;1.80;;
9854;SDS011;4966;48.112;9.282;2023-05-01T14:14:58;2.20;;;1.20;;
9854;SDS011;4966;48.112;9.282;2023-05-01T14:17:28;2.03;;;1.50;;
9854;SDS011;4966;48.112;9.282;2023-05-01T14:19:55;3.13;;;1.40;;
9854;SDS011;4966;48.112;9.282;2023-05-01T14:22:21;2.42;;;1.20;;
9854;SDS011;4966;48.112;9.282;2023-05-01T14:24:46;2.50;;;1.42;;
9854;SDS011;4966;48.112;9.282;2023-05-01T14:27:12;3.08;;;1.30;;
9854;SDS011;4966;48.112;9.282;2023-05-01T14:29:40;3.15;;;1.67;;
9854;SDS011;4966;48.112;9.282;2023-05-01T14:32:07;2.38;;;1.33;;
9854;SDS011;4966;48.112;9.282;2023-05-01T14:34:34;2.85;;;1.60;;
9854;SDS011;4966;48.112;9.282;2023-05-01T14:37:04;3.42;;;1.67;;
9854;SDS011;4966;48.112;9.282;2023-05-01T14:39:30;2.80;;;1.73;;
9854;SDS011;4966;48.112;9.282;2023-05-01T14:41:56;1.90;;;1.30;;
9854;SDS011;4966;48.112;9.282;2023-05-01T14:44:24;2.05;;;1.38;;
9854;SDS011;4966;48.112;9.282;2023-05-01T14:46:51;2.00;;;1.30;;
9854;SDS011;4966;48.112;9.282;2023-05-01T14:49:20;3.17;;;1.45;;
9854;SDS011;4966;48.112;9.282;2023-05-01T14:51:48;2.40;;;1.40;;
9854;SDS011;4966;48.112;9.282;2023-05-01T14:54:13;4.00;;;1.27;;
9854;SDS011;4966;48.112;9.282;2023-05-01T14:56:39;2.63;;;0.90;;
9854;SDS011;4966;48.112;9.282;2023-05-01T14:59:06;1.45;;;0.70;;
9854;SDS011;4966;48.112;9.282;2023-05-01T15:01:31;1.90;;;1.02;;
9854;SDS011;4966;48.112;9.282;2023-05-01T15:03:57;1.63;;;0.95;;
9854;SDS011;4966;48.112;9.282;2023-05-01T15:06:22;1.50;;;0.93;;
9854;SDS011;4966;48.112;9.282;2023-05-01T15:08:51;1.25;;;0.73;;
9854;SDS011;4966;48.112;9.282;2023-05-01T15:11:16;1.70;;;1.00;;
9854;SDS011;4966;48.112;9.282;2023-05-01T15:13:43;1.30;;;0.90;;
9854;SDS011;4966;48.112;9.282;2023-05-01T15:16:10;2.78;;;0.90;;
9854;SDS011;4966;48.112;9.282;2023-05-01T15:18:36;1.30;;;0.77;;
9854;SDS011;4966;48.112;9.282;2023-05-01T15:21:01;2.78;;;0.80;;
9854;SDS011;4966;48.112;9.282;2023-05-01T15:23:27;2.20;;;0.65;;
9854;SDS011;4966;48.112;9.282;2023-05-01T15:25:53;1.50;;;0.88;;
9854;SDS011;4966;48.112;9.282;2023-05-01T15:28:18;2.45;;;1.02;;
9854;SDS011;4966;48.112;9.282;2023-05-01T15:30:44;1.77;;;1.00;;
9854;SDS011;4966;48.112;9.282;2023-05-01T15:33:14;2.10;;;1.08;;
9854;SDS011;4966;48.112;9.282;2023-05-01T15:35:39;3.47;;;1.10;;
9854;SDS011;4966;48.112;9.282;2023-05-01T15:38:05;2.03;;;1.10;;
9854;SDS011;4966;48.112;9.282;2023-05-01T15:40:31;2.45;;;1.58;;
9854;SDS011;4966;48.112;9.282;2023-05-01T15:42:58;8.23;;;4.88;;
9854;SDS011;4966;48.112;9.282;2023-05-01T15:45:25;5.93;;;3.42;;
9854;SDS011;4966;48.112;9.282;2023-05-01T15:47:51;3.50;;;1.80;;
9854;SDS011;4966;48.112;9.282;2023-05-01T15:50:17;4.30;;;2.15;;
9854;SDS011;4966;48.112;9.282;2023-05-01T15:52:42;2.70;;;1.52;;
9854;SDS011;4966;48.112;9.282;2023-05-01T15:55:08;4.90;;;1.88;;
9854;SDS011;4966;48.112;9.282;2023-05-01T15:57:33;4.07;;;2.53;;
9854;SDS011;4966;48.112;9.282;2023-05-01T15:59:59;2.92;;;1.92;;